createdAt,value
2018-07-27T00:01:14.432Z,37.35
2018-07-27T00:03:42.255Z,37.42
2018-07-27T00:06:10.056Z,36.00
2018-07-27T00:08:37.904Z,36.58
2018-07-27T00:11:05.687Z,37.99
2018-07-27T00:13:33.589Z,38.11
2018-07-27T00:16:01.824Z,37.27
2018-07-27T00:18:29.627Z,36.77
2018-07-27T00:20:57.519Z,37.44
2018-07-27T00:23:25.381Z,37.05
2018-07-27T00:25:53.179Z,38.54
2018-07-27T00:28:20.955Z,36.87
2018-07-27T00:30:48.675Z,37.74
2018-07-27T00:33:16.455Z,38.71
2018-07-27T00:35:44.188Z,38.42
2018-07-27T00:38:12.116Z,39.53
2018-07-27T00:40:39.975Z,39.21
2018-07-27T00:43:07.824Z,38.06
2018-07-27T00:45:35.690Z,38.97
2018-07-27T00:48:03.607Z,39.19
2018-07-27T00:50:31.328Z,39.18
2018-07-27T00:52:59.037Z,39.45
2018-07-27T00:55:26.836Z,39.27
2018-07-27T00:57:54.666Z,38.02
2018-07-27T01:00:22.467Z,38.12
2018-07-27T01:02:50.262Z,38.14
2018-07-27T01:07:52.571Z,38.75
2018-07-27T01:10:20.417Z,38.56
2018-07-27T01:12:48.234Z,38.34
2018-07-27T01:15:16.025Z,38.88
2018-07-27T01:17:43.840Z,39.13
2018-07-27T01:20:11.702Z,38.89
2018-07-27T01:22:39.540Z,39.61
2018-07-27T01:25:07.301Z,39.35
2018-07-27T01:27:35.098Z,39.17
2018-07-27T01:30:03.648Z,39.62
2018-07-27T01:32:31.459Z,39.25
2018-07-27T01:34:59.216Z,40.08
2018-07-27T01:37:26.963Z,39.10
2018-07-27T01:39:54.712Z,38.72
2018-07-27T01:42:22.521Z,40.28
2018-07-27T01:44:50.383Z,38.98
2018-07-27T01:47:18.207Z,39.63
2018-07-27T01:49:45.971Z,39.52
2018-07-27T01:52:13.751Z,39.74
2018-07-27T01:54:41.500Z,39.79
2018-07-27T01:57:09.243Z,39.56
2018-07-27T01:59:37.070Z,40.28
2018-07-27T02:02:05.080Z,40.31
2018-07-27T02:04:32.911Z,40.39
2018-07-27T02:07:00.721Z,39.26
2018-07-27T02:09:28.552Z,40.37
2018-07-27T02:11:56.382Z,40.61
2018-07-27T02:14:24.159Z,40.53
2018-07-27T02:16:52.016Z,39.84
2018-07-27T02:19:19.820Z,40.04
2018-07-27T02:21:47.707Z,41.15
2018-07-27T02:24:15.532Z,41.13
2018-07-27T02:26:43.334Z,40.07
2018-07-27T02:29:11.119Z,40.87
2018-07-27T02:31:38.936Z,40.90
2018-07-27T02:34:06.719Z,40.50
2018-07-27T02:36:34.523Z,41.69
2018-07-27T02:39:02.372Z,42.29
2018-07-27T02:41:30.197Z,41.95
2018-07-27T02:43:58.062Z,41.95
2018-07-27T02:46:25.866Z,42.39
2018-07-27T02:48:53.652Z,42.28
2018-07-27T02:51:21.521Z,42.74
2018-07-27T02:53:49.345Z,42.42
2018-07-27T02:56:17.203Z,41.61
2018-07-27T02:58:44.995Z,42.14
2018-07-27T03:01:12.821Z,42.37
2018-07-27T03:03:40.568Z,42.26
2018-07-27T03:06:08.288Z,41.16
2018-07-27T03:08:36.084Z,42.16
2018-07-27T03:11:03.913Z,42.76
2018-07-27T03:13:31.714Z,42.29
2018-07-27T03:15:59.644Z,41.84
2018-07-27T03:18:27.459Z,41.78
2018-07-27T03:20:55.383Z,42.10
2018-07-27T03:23:23.183Z,42.13
2018-07-27T03:25:50.959Z,42.07
2018-07-27T03:28:18.785Z,43.26
2018-07-27T03:30:46.611Z,43.28
2018-07-27T03:33:14.402Z,43.90
2018-07-27T03:35:42.187Z,43.36
2018-07-27T03:38:09.962Z,44.46
2018-07-27T03:40:37.755Z,45.09
2018-07-27T03:43:05.515Z,42.88
2018-07-27T03:45:33.367Z,43.94
2018-07-27T03:48:05.703Z,42.29
2018-07-27T03:50:33.452Z,43.78
2018-07-27T03:53:01.231Z,43.68
2018-07-27T03:55:28.963Z,44.44
2018-07-27T03:57:56.760Z,42.62
2018-07-27T04:00:24.602Z,42.32
2018-07-27T04:02:52.356Z,42.72
2018-07-27T04:05:20.124Z,43.24
2018-07-27T04:07:47.947Z,43.26
2018-07-27T04:10:15.767Z,44.34
2018-07-27T04:12:43.603Z,43.30
2018-07-27T04:15:11.380Z,45.02
2018-07-27T04:17:39.144Z,43.92
2018-07-27T04:20:07.120Z,45.17
2018-07-27T04:22:34.919Z,45.13
2018-07-27T04:25:02.740Z,44.42
2018-07-27T04:27:30.519Z,45.76
2018-07-27T04:29:58.378Z,46.12
2018-07-27T04:32:26.111Z,44.72
2018-07-27T04:34:53.944Z,46.02
2018-07-27T04:37:21.725Z,45.34
2018-07-27T04:39:49.440Z,44.41
2018-07-27T04:42:17.240Z,46.21
2018-07-27T04:44:45.070Z,45.96
2018-07-27T04:47:12.857Z,45.58
2018-07-27T04:49:40.867Z,45.79
2018-07-27T04:52:08.668Z,46.56
2018-07-27T04:54:36.455Z,45.65
2018-07-27T04:57:04.415Z,45.90
2018-07-27T04:59:32.207Z,45.69
2018-07-27T05:01:59.971Z,46.35
2018-07-27T05:04:27.743Z,46.14
2018-07-27T05:06:55.591Z,45.73
2018-07-27T05:09:23.808Z,46.01
2018-07-27T05:11:51.964Z,45.79
2018-07-27T05:14:19.691Z,45.88
2018-07-27T05:16:47.519Z,44.50
2018-07-27T05:19:15.323Z,43.06
2018-07-27T05:21:43.197Z,41.26
2018-07-27T05:24:11.032Z,40.10
2018-07-27T05:26:38.852Z,39.38
2018-07-27T05:29:06.675Z,37.20
2018-07-27T05:31:34.431Z,36.01
2018-07-27T05:34:02.294Z,35.01
2018-07-27T05:36:30.095Z,33.23
2018-07-27T05:38:58.322Z,33.71
2018-07-27T05:41:26.174Z,32.17
2018-07-27T05:43:53.991Z,32.32
2018-07-27T05:46:21.843Z,32.33
2018-07-27T05:48:49.684Z,32.20
2018-07-27T05:51:17.473Z,32.61
2018-07-27T05:53:45.306Z,32.28
2018-07-27T05:56:13.119Z,32.49
2018-07-27T05:58:40.975Z,32.08
2018-07-27T06:01:09.294Z,31.56
2018-07-27T06:03:37.119Z,30.86
2018-07-27T06:06:05.240Z,30.42
2018-07-27T06:08:33.692Z,30.28
2018-07-27T06:11:01.555Z,31.11
2018-07-27T06:13:29.392Z,30.43
2018-07-27T06:15:57.375Z,31.27
2018-07-27T06:18:25.183Z,31.54
2018-07-27T06:20:53.013Z,30.75
2018-07-27T06:23:20.814Z,30.25
2018-07-27T06:25:48.568Z,30.92
2018-07-27T06:28:16.390Z,30.71
2018-07-27T06:30:45.051Z,30.51
2018-07-27T06:33:12.801Z,29.80
2018-07-27T06:35:40.628Z,29.80
2018-07-27T06:38:08.503Z,30.11
2018-07-27T06:40:36.315Z,29.93
2018-07-27T06:43:04.227Z,29.85
2018-07-27T06:45:31.960Z,30.40
2018-07-27T06:47:59.755Z,30.75
2018-07-27T06:50:27.520Z,30.83
2018-07-27T06:52:55.285Z,30.57
2018-07-27T06:55:23.116Z,31.31
2018-07-27T06:57:51.326Z,31.63
2018-07-27T07:00:19.109Z,31.81
2018-07-27T07:02:46.890Z,31.61
2018-07-27T07:05:14.688Z,32.69
2018-07-27T07:07:42.467Z,31.74
2018-07-27T07:10:10.368Z,31.01
2018-07-27T07:12:38.168Z,31.79
2018-07-27T07:15:07.355Z,31.56
2018-07-27T07:17:35.179Z,32.13
2018-07-27T07:20:03.787Z,30.64
2018-07-27T07:22:31.604Z,31.50
2018-07-27T07:24:59.471Z,30.99
2018-07-27T07:27:27.263Z,31.93
2018-07-27T07:29:55.088Z,32.09
2018-07-27T07:32:22.855Z,32.03
2018-07-27T07:34:50.611Z,31.95
2018-07-27T07:37:18.647Z,31.48
2018-07-27T07:39:46.443Z,31.08
2018-07-27T07:42:14.264Z,31.13
2018-07-27T07:44:42.155Z,31.59
2018-07-27T07:47:09.953Z,32.20
2018-07-27T07:49:37.668Z,31.15
2018-07-27T07:52:05.800Z,31.89
2018-07-27T07:54:33.617Z,31.64
2018-07-27T07:57:01.374Z,31.67
2018-07-27T07:59:29.112Z,31.35
2018-07-27T08:01:56.856Z,31.87
2018-07-27T08:04:24.776Z,31.93
2018-07-27T08:06:52.491Z,31.47
2018-07-27T08:09:20.359Z,32.37
2018-07-27T08:11:48.179Z,32.23
2018-07-27T08:14:15.939Z,31.92
2018-07-27T08:16:43.737Z,31.98
2018-07-27T08:19:11.520Z,32.30
2018-07-27T08:21:39.387Z,32.40
2018-07-27T08:24:07.216Z,31.59
2018-07-27T08:26:45.760Z,32.01
2018-07-27T08:29:14.903Z,31.80
2018-07-27T08:31:43.972Z,31.35
2018-07-27T08:34:12.696Z,31.83
2018-07-27T08:36:40.515Z,31.44
2018-07-27T08:39:10.888Z,31.74
2018-07-27T08:41:39.341Z,31.32
2018-07-27T08:44:08.173Z,31.30
2018-07-27T08:46:36.223Z,31.23
2018-07-27T08:49:04.131Z,31.76
2018-07-27T08:51:32.199Z,31.54
2018-07-27T08:53:59.938Z,30.36
2018-07-27T08:56:27.773Z,30.65
2018-07-27T08:58:55.640Z,30.28
2018-07-27T09:01:24.095Z,30.47
2018-07-27T09:03:52.176Z,29.77
2018-07-27T09:06:19.962Z,29.42
2018-07-27T09:08:48.376Z,29.82
2018-07-27T09:11:16.195Z,30.02
2018-07-27T09:13:43.983Z,30.11
2018-07-27T09:16:11.791Z,29.91
2018-07-27T09:18:39.522Z,29.31
2018-07-27T09:21:07.321Z,30.26
2018-07-27T09:23:35.450Z,29.48
2018-07-27T09:26:03.298Z,29.78
2018-07-27T09:28:31.092Z,29.46
2018-07-27T09:30:58.871Z,29.17
2018-07-27T09:33:26.683Z,29.31
2018-07-27T09:35:54.476Z,29.54
2018-07-27T09:38:22.291Z,29.51
2018-07-27T09:40:50.140Z,28.80
2018-07-27T09:43:18.515Z,29.94
2018-07-27T09:45:46.239Z,28.89
2018-07-27T09:48:14.024Z,28.45
2018-07-27T09:50:42.963Z,28.28
2018-07-27T09:53:10.940Z,29.11
2018-07-27T09:55:38.779Z,28.50
2018-07-27T09:58:06.667Z,27.47
2018-07-27T10:00:40.132Z,26.53
2018-07-27T10:03:07.942Z,24.85
2018-07-27T10:05:35.650Z,24.02
2018-07-27T10:08:03.583Z,23.32
2018-07-27T10:10:31.367Z,22.43
2018-07-27T10:12:59.332Z,22.34
2018-07-27T10:15:27.087Z,22.84
2018-07-27T10:17:54.903Z,22.89
2018-07-27T10:20:22.751Z,22.75
2018-07-27T10:22:50.503Z,22.57
2018-07-27T10:25:18.327Z,22.37
2018-07-27T10:27:46.484Z,22.68
2018-07-27T10:30:14.384Z,22.52
2018-07-27T10:32:42.160Z,21.77
2018-07-27T10:35:10.007Z,21.36
2018-07-27T10:37:37.903Z,20.63
2018-07-27T10:40:06.723Z,19.57
2018-07-27T10:42:34.499Z,18.77
2018-07-27T10:45:02.379Z,17.93
2018-07-27T10:47:30.159Z,18.24
2018-07-27T10:49:57.947Z,17.97
2018-07-27T10:52:25.752Z,17.65
2018-07-27T10:54:53.559Z,16.65
2018-07-27T10:57:21.372Z,16.33
2018-07-27T10:59:49.187Z,16.94
2018-07-27T11:02:17.084Z,15.75
2018-07-27T11:04:44.883Z,15.54
2018-07-27T11:07:12.726Z,14.35
2018-07-27T11:09:40.600Z,14.10
2018-07-27T11:12:08.320Z,13.33
2018-07-27T11:14:36.119Z,13.13
2018-07-27T11:17:03.972Z,13.02
2018-07-27T11:19:32.164Z,12.26
2018-07-27T11:22:00.016Z,11.72
2018-07-27T11:24:27.773Z,11.21
2018-07-27T11:26:55.555Z,10.55
2018-07-27T11:29:23.396Z,9.74
2018-07-27T11:31:51.227Z,10.50
2018-07-27T11:34:19.051Z,10.86
2018-07-27T11:36:46.845Z,10.41
2018-07-27T11:39:14.631Z,10.87
2018-07-27T11:41:42.398Z,11.19
2018-07-27T11:44:10.140Z,11.09
2018-07-27T11:46:37.979Z,11.73
2018-07-27T12:00:54.483Z,10.43
2018-07-27T12:03:22.343Z,11.42
2018-07-27T12:05:50.189Z,10.77
2018-07-27T12:08:18.007Z,10.30
2018-07-27T12:10:45.863Z,10.18
2018-07-27T12:13:13.640Z,10.33
2018-07-27T12:15:41.392Z,9.74
2018-07-27T12:18:09.132Z,9.54
2018-07-27T12:20:37.064Z,9.70
2018-07-27T12:23:04.776Z,9.51
2018-07-27T12:25:32.575Z,9.09
2018-07-27T12:28:00.395Z,9.78
2018-07-27T12:30:28.332Z,10.89
2018-07-27T12:32:56.068Z,10.20
2018-07-27T12:35:23.793Z,10.54
2018-07-27T12:37:51.658Z,11.31
2018-07-27T12:40:19.530Z,10.80
2018-07-27T12:42:47.276Z,11.18
2018-07-27T12:45:15.122Z,10.86
2018-07-27T12:47:42.920Z,11.14
2018-07-27T12:50:10.975Z,10.53
2018-07-27T12:52:38.742Z,10.06
2018-07-27T12:55:06.751Z,11.38
2018-07-27T12:57:34.616Z,10.69
2018-07-27T13:00:02.407Z,11.32
2018-07-27T13:02:30.179Z,11.68
2018-07-27T13:04:57.964Z,10.74
2018-07-27T13:07:25.750Z,11.10
2018-07-27T13:09:58.092Z,11.34
2018-07-27T13:12:25.859Z,11.81
2018-07-27T13:14:53.627Z,11.21
2018-07-27T13:17:21.377Z,11.88
2018-07-27T13:19:49.192Z,11.34
2018-07-27T13:22:17.064Z,10.68
2018-07-27T13:24:59.730Z,11.96
2018-07-27T13:27:12.573Z,11.89
2018-07-27T13:29:40.376Z,12.46
2018-07-27T13:34:55.316Z,11.95
2018-07-27T13:37:25.403Z,13.68
2018-07-27T13:42:24.427Z,13.85
2018-07-27T13:44:52.238Z,13.09
2018-07-27T13:47:20.161Z,13.17
2018-07-27T13:49:48.020Z,13.61
2018-07-27T13:52:15.883Z,13.84
2018-07-27T13:54:43.693Z,13.97
2018-07-27T13:57:11.572Z,14.09
2018-07-27T13:59:39.811Z,14.44
2018-07-27T14:02:08.068Z,14.80
2018-07-27T14:04:35.927Z,13.90
2018-07-27T14:07:04.770Z,14.71
2018-07-27T14:09:32.574Z,14.87
2018-07-27T14:12:00.488Z,14.14
2018-07-27T14:14:28.354Z,15.02
2018-07-27T14:16:56.171Z,15.13
2018-07-27T14:19:24.680Z,15.43
2018-07-27T14:21:52.565Z,15.48
2018-07-27T14:24:20.380Z,16.36
2018-07-27T14:26:48.182Z,15.93
2018-07-27T14:29:16.057Z,16.26
2018-07-27T14:31:43.771Z,16.52
2018-07-27T14:34:11.550Z,16.36
2018-07-27T14:36:39.595Z,16.45
2018-07-27T14:39:09.073Z,16.72
2018-07-27T14:41:37.029Z,17.06
2018-07-27T14:44:04.831Z,17.22
2018-07-27T14:46:32.813Z,17.32
2018-07-27T14:49:00.563Z,17.05
2018-07-27T14:51:28.719Z,17.67
2018-07-27T14:53:56.713Z,17.63
2018-07-27T14:56:24.503Z,17.64
2018-07-27T14:58:52.329Z,16.77
2018-07-27T15:01:20.127Z,16.20
2018-07-27T15:03:47.896Z,16.65
2018-07-27T15:06:15.697Z,16.94
2018-07-27T15:08:43.575Z,17.68
2018-07-27T15:11:11.349Z,17.49
2018-07-27T15:13:39.183Z,17.22
2018-07-27T15:16:06.975Z,16.99
2018-07-27T15:18:34.744Z,17.36
2018-07-27T15:21:02.530Z,16.90
2018-07-27T15:23:30.353Z,16.64
2018-07-27T15:25:58.139Z,17.11
2018-07-27T15:28:26.018Z,17.80
2018-07-27T15:30:53.800Z,18.18
2018-07-27T15:33:21.520Z,18.58
2018-07-27T15:35:49.287Z,18.30
2018-07-27T15:38:17.055Z,17.82
2018-07-27T15:40:44.900Z,18.98
2018-07-27T15:43:12.689Z,17.94
2018-07-27T15:45:40.487Z,18.05
2018-07-27T15:48:08.347Z,17.74
2018-07-27T15:50:36.130Z,17.45
2018-07-27T15:53:03.999Z,18.49
2018-07-27T15:55:31.861Z,18.62
2018-07-27T15:58:01.411Z,18.22
2018-07-27T16:00:29.182Z,18.38
2018-07-27T16:02:57.031Z,18.37
2018-07-27T16:05:24.808Z,18.03
2018-07-27T16:07:52.601Z,19.11
2018-07-27T16:10:20.457Z,18.07
2018-07-27T16:12:48.284Z,17.26
2018-07-27T16:15:16.083Z,18.17
2018-07-27T16:17:43.872Z,17.91
2018-07-27T16:20:11.651Z,17.16
2018-07-27T16:22:39.567Z,16.93
2018-07-27T16:25:07.449Z,17.25
2018-07-27T16:27:35.255Z,16.80
2018-07-27T16:30:03.305Z,17.87
2018-07-27T16:32:31.147Z,17.45
2018-07-27T16:34:58.980Z,16.99
2018-07-27T16:37:26.799Z,17.55
2018-07-27T16:39:54.687Z,17.32
2018-07-27T16:42:22.435Z,17.21
2018-07-27T16:44:50.232Z,17.91
2018-07-27T16:47:18.075Z,17.46
2018-07-27T16:49:45.900Z,17.95
2018-07-27T16:52:13.719Z,18.06
2018-07-27T16:54:41.608Z,17.98
2018-07-27T16:57:09.405Z,17.75
2018-07-27T16:59:37.471Z,18.28
2018-07-27T17:02:05.275Z,17.88
2018-07-27T17:04:33.040Z,18.32
2018-07-27T17:07:01.077Z,17.95
2018-07-27T17:09:28.911Z,18.54
2018-07-27T17:11:56.698Z,18.10
2018-07-27T17:14:24.467Z,18.29
2018-07-27T17:16:52.259Z,18.44
2018-07-27T17:19:20.061Z,18.69
2018-07-27T17:21:47.861Z,18.25
2018-07-27T17:24:15.737Z,18.95
2018-07-27T17:26:43.569Z,19.02
2018-07-27T17:29:11.311Z,19.42
2018-07-27T17:31:39.103Z,18.70
2018-07-27T17:34:06.875Z,19.23
2018-07-27T17:36:34.720Z,19.62
2018-07-27T17:39:02.886Z,19.72
2018-07-27T17:41:30.707Z,19.70
2018-07-27T17:43:58.495Z,19.41
2018-07-27T17:46:26.287Z,19.31
2018-07-27T17:48:54.155Z,20.07
2018-07-27T17:51:21.971Z,20.77
2018-07-27T17:53:49.851Z,20.44
2018-07-27T17:56:17.723Z,20.35
2018-07-27T17:58:45.518Z,19.95
2018-07-27T18:01:13.297Z,20.43
2018-07-27T18:03:41.083Z,20.89
2018-07-27T18:06:08.860Z,21.29
2018-07-27T18:08:36.651Z,21.54
2018-07-27T18:11:04.451Z,21.27
2018-07-27T18:13:32.262Z,21.40
2018-07-27T18:16:00.035Z,21.71
2018-07-27T18:18:27.791Z,22.17
2018-07-27T18:20:55.576Z,22.44
2018-07-27T18:23:23.387Z,22.51
2018-07-27T18:25:51.226Z,23.29
2018-07-27T18:28:19.027Z,22.96
2018-07-27T18:30:46.906Z,23.21
2018-07-27T18:33:14.700Z,24.17
2018-07-27T18:35:42.508Z,24.25
2018-07-27T18:38:10.343Z,24.17
2018-07-27T18:40:38.088Z,24.49
2018-07-27T18:43:05.917Z,23.61
2018-07-27T18:45:33.777Z,24.91
2018-07-27T18:48:01.577Z,24.53
2018-07-27T18:50:29.464Z,25.14
2018-07-27T18:52:57.257Z,24.68
2018-07-27T18:55:25.113Z,25.31
2018-07-27T18:57:52.911Z,25.62
2018-07-27T19:00:20.680Z,26.11
2018-07-27T19:02:48.515Z,26.23
2018-07-27T19:05:16.237Z,25.79
2018-07-27T19:07:44.075Z,26.03
2018-07-27T19:10:11.931Z,26.33
2018-07-27T19:12:39.710Z,26.09
2018-07-27T19:15:08.299Z,27.13
2018-07-27T19:17:36.228Z,26.73
2018-07-27T19:20:04.358Z,26.52
2018-07-27T19:22:32.215Z,27.54
2018-07-27T19:25:00.024Z,27.41
2018-07-27T19:27:27.836Z,28.09
2018-07-27T19:29:55.621Z,28.10
2018-07-27T19:32:23.374Z,28.15
2018-07-27T19:34:51.216Z,28.08
2018-07-27T19:37:18.980Z,29.02
2018-07-27T19:39:46.766Z,28.50
2018-07-27T19:42:14.583Z,29.54
2018-07-27T19:44:42.319Z,28.58
2018-07-27T19:47:10.124Z,29.36
2018-07-27T19:49:38.010Z,30.06
2018-07-27T19:52:05.969Z,29.38
2018-07-27T19:54:33.944Z,29.41
2018-07-27T19:57:01.675Z,30.57
2018-07-27T19:59:29.458Z,30.73
2018-07-27T20:01:57.244Z,30.71
2018-07-27T20:04:25.029Z,31.33
2018-07-27T20:06:52.876Z,30.79
2018-07-27T20:09:20.705Z,30.67
2018-07-27T20:11:48.491Z,31.99
2018-07-27T20:14:16.270Z,31.62
2018-07-27T20:16:44.083Z,32.45
2018-07-27T20:19:11.883Z,31.63
2018-07-27T20:21:39.915Z,31.94
2018-07-27T20:24:07.671Z,31.42
2018-07-27T20:26:35.478Z,33.00
2018-07-27T20:29:03.380Z,32.28
2018-07-27T20:31:31.118Z,32.62
2018-07-27T20:33:58.971Z,33.66
2018-07-27T20:36:26.818Z,32.82
2018-07-27T20:38:54.767Z,34.35
2018-07-27T20:41:22.832Z,34.02
2018-07-27T20:43:50.767Z,35.71
2018-07-27T20:46:18.524Z,34.49
2018-07-27T20:48:46.416Z,35.73
2018-07-27T20:51:14.291Z,34.80
2018-07-27T20:53:42.075Z,36.14
2018-07-27T20:56:09.808Z,36.36
2018-07-27T20:58:37.629Z,36.02
2018-07-27T21:01:05.426Z,34.54
2018-07-27T21:03:33.304Z,36.92
2018-07-27T21:06:01.131Z,36.88
2018-07-27T21:08:28.903Z,35.14
2018-07-27T21:10:56.696Z,36.99
2018-07-27T21:13:24.556Z,36.85
2018-07-27T21:15:52.387Z,37.44
2018-07-27T21:18:20.235Z,37.43
2018-07-27T21:20:47.983Z,34.73
2018-07-27T21:23:15.810Z,37.25
2018-07-27T21:25:43.640Z,38.06
2018-07-27T21:28:11.392Z,38.22
2018-07-27T21:30:39.211Z,38.79
2018-07-27T21:33:06.995Z,40.09
2018-07-27T21:35:34.779Z,40.55
2018-07-27T21:38:03.010Z,39.46
2018-07-27T21:40:30.904Z,39.09
2018-07-27T21:42:58.726Z,40.26
2018-07-27T21:45:26.599Z,41.18
2018-07-27T21:47:54.453Z,40.36
2018-07-27T21:50:22.207Z,40.81
2018-07-27T21:52:50.156Z,39.66
2018-07-27T21:55:18.163Z,38.97
2018-07-27T21:57:45.990Z,38.42
2018-07-27T22:00:14.256Z,38.63
2018-07-27T22:02:42.313Z,38.81
2018-07-27T22:05:10.180Z,39.13
2018-07-27T22:07:37.979Z,38.44
2018-07-27T22:10:05.920Z,40.33
2018-07-27T22:12:33.752Z,41.68
2018-07-27T22:15:01.581Z,43.18
2018-07-27T22:17:29.385Z,44.30
2018-07-27T22:19:57.435Z,45.24
2018-07-27T22:22:25.283Z,43.16
2018-07-27T22:24:53.945Z,44.45
2018-07-27T22:27:21.924Z,43.98
2018-07-27T22:29:50.145Z,45.28
2018-07-27T22:32:18.028Z,44.84
2018-07-27T22:34:48.674Z,44.70
2018-07-27T22:37:16.619Z,45.36
2018-07-27T22:39:44.404Z,44.76
2018-07-27T22:42:12.314Z,45.55
2018-07-27T22:44:40.162Z,45.42
2018-07-27T22:47:07.959Z,45.89
2018-07-27T22:49:35.697Z,43.34
2018-07-27T22:52:03.593Z,44.48
2018-07-27T22:54:32.066Z,45.66
2018-07-27T22:57:00.856Z,44.36
2018-07-27T22:59:30.117Z,44.40
2018-07-27T23:01:58.041Z,45.61
2018-07-27T23:04:25.747Z,45.76
2018-07-27T23:06:53.527Z,47.31
2018-07-27T23:09:21.325Z,46.20
2018-07-27T23:11:50.319Z,47.17
2018-07-27T23:14:18.154Z,45.10
2018-07-27T23:16:46.019Z,44.24
2018-07-27T23:19:13.913Z,45.37
2018-07-27T23:21:41.711Z,46.30
2018-07-27T23:24:09.505Z,46.06
2018-07-27T23:26:37.346Z,44.41
2018-07-27T23:29:05.219Z,45.49
2018-07-27T23:31:33.012Z,44.59
2018-07-27T23:34:00.891Z,45.82
2018-07-27T23:36:28.773Z,43.78
2018-07-27T23:38:56.651Z,43.98
2018-07-27T23:41:24.533Z,42.41
2018-07-27T23:43:52.317Z,43.80
2018-07-27T23:46:20.121Z,43.91
2018-07-27T23:48:47.927Z,43.06
2018-07-27T23:51:15.731Z,42.48
2018-07-27T23:53:43.500Z,42.35
2018-07-27T23:56:11.350Z,41.60
2018-07-27T23:58:39.132Z,42.59
